
Distance (Route):
Temperature : -13.0°C
Humidity : 39.3%
Pressure : 485.5hPa| Receiver | Date | Latitude | Longitude | Direction | Speed | Altitude | Climb | Temperature | Humidity | Pressure | Voltage | Killtimer | Uptime | BKT | XDATA |
|---|---|---|---|---|---|---|---|---|---|---|---|---|---|---|---|
| GYPAP8-17 | 2026-09-05 13:00:54 | 46.28619 | 21.25975 | 89° | 97km/h | 6117m | -17.8m/s | -13.0°C | 39.3% | 485.5hPa | 2.7V | 00:00:00 | 00:00:00 | 00:00:00 | |
| GYPAP8-17 | 2026-09-05 12:59:53 | 46.28523 | 21.23890 | 89° | 97km/h | 7176m | -17.9m/s | -19.6°C | 12.3% | 421.4hPa | 2.7V | 00:00:00 | 00:00:00 | 00:00:00 | |
| GYPAP8-17 | 2026-09-05 12:58:58 | 46.28646 | 21.21999 | 98° | 86km/h | 8167m | -18.1m/s | -25.7°C | 88.2% | 368.2hPa | 2.7V | 00:00:00 | 00:00:00 | 00:00:00 | |
| GYPAP8-17 | 2026-09-05 12:57:57 | 46.28717 | 21.19959 | 89° | 100km/h | 9350m | -20.1m/s | -35.0°C | 75.5% | 312.0hPa | 2.7V | 00:00:00 | 00:00:00 | 00:00:00 | |
| GYPAP8-17 | 2026-09-05 12:56:35 | 46.28801 | 21.16648 | 91° | 124km/h | 11154m | -24.7m/s | -49.1°C | 39.6% | 239.3hPa | 2.7V | 00:00:00 | 00:00:00 | 00:00:00 | |
| LZ4TU-5 | 2026-09-05 12:55:53 | 46.28656 | 21.14744 | 83° | 124km/h | 12027m | -19.3m/s | -56.5°C | 37.0% | 208.8hPa | 2.7V | 00:00:00 | 00:00:00 | 00:00:00 | |
| LZ4TU-5 | 2026-09-05 12:55:47 | 46.28634 | 21.14512 | 86° | 130km/h | 12123m | -19.5m/s | -57.1°C | 30.6% | 205.7hPa | 2.7V | 00:00:00 | 00:00:00 | 00:00:00 | |
| GYPAP8-17 | 2026-09-05 12:54:00 | 46.28606 | 21.09793 | 92° | 95km/h | 14307m | -22.4m/s | -59.6°C | 3.7% | 145.2hPa | 2.7V | 00:00:00 | 00:00:00 | 00:00:00 | |
| GYPAP8-17 | 2026-09-05 12:52:51 | 46.28534 | 21.07736 | 92° | 80km/h | 15942m | -25.0m/s | -58.4°C | 2.1% | 112.0hPa | 2.7V | 00:00:00 | 00:00:00 | 00:00:00 | |
| LZ4TU-5 | 2026-09-05 12:52:16 | 46.28527 | 21.06987 | 90° | 60km/h | 16853m | -27.3m/s | -57.7°C | 1.7% | 96.8hPa | 2.7V | 00:00:00 | 00:00:00 | 00:00:00 | |
| LZ4TU-5 | 2026-09-05 12:52:12 | 46.28524 | 21.06894 | 92° | 64km/h | 16961m | -27.0m/s | -57.7°C | 0% | 95.2hPa | 2.7V | 00:00:00 | 00:00:00 | 00:00:00 | |
| GYPAP8-17 | 2026-09-05 12:51:54 | 46.29273 | 21.07067 | 0° | 0km/h | 18186m | 0.0m/s | -56.3°C | 1.5% | 88.0hPa | 2.7V | 00:00:00 | 00:00:00 | 00:00:00 | |
| GYPAP8-17 | 2026-09-05 12:50:03 | 51.63079 | -13.01545 | 0° | 0km/h | 13103m | 0.0m/s | -54.0°C | 1.2% | 50.1hPa | 2.7V | 00:00:00 | 00:00:00 | 00:00:00 | |
| LZ4TU-5 | 2026-09-05 12:49:39 | -12.04543 | -77.05637 | 319° | 199km/h | 990m | 0.9m/s | -53.7°C | 1.1% | 43.3hPa | 2.7V | 00:00:00 | 00:00:00 | 00:00:00 | |
| GYPAP8-17 | 2026-09-05 12:49:00 | -12.03810 | -77.06042 | 346° | 283km/h | 1964m | 112.9m/s | -52.1°C | 1.1% | 33.6hPa | 2.7V | 00:00:00 | 00:00:00 | 00:00:00 | |
| 9A1FER-10 | 2026-09-05 12:48:50 | -12.04248 | -77.05885 | 327° | 199km/h | 1027m | -7.2m/s | -52.0°C | 4.2% | 30.7hPa | 2.7V | 00:00:00 | 01:59:33 | 00:00:00 | |
| 9A1FER-10 | 2026-09-05 12:48:42 | -12.04540 | -77.05684 | 317° | 201km/h | 997m | 1.4m/s | -50.1°C | 3.7% | 29.1hPa | 2.7V | 00:00:00 | 01:59:26 | 00:00:00 | |
| GYPAP8-17 | 2026-09-05 12:47:55 | -12.03770 | -77.04053 | 170° | 199km/h | 989m | -0.6m/s | -45.3°C | 0.8% | 19.3hPa | 2.6V | 00:00:00 | 00:00:00 | 00:00:00 | |
| 9A1FER-10 | 2026-09-05 12:47:21 | -12.03147 | -77.05411 | 60° | 199km/h | 989m | -0.9m/s | -41.6°C | 2.5% | 13.5hPa | 2.6V | 00:00:00 | 01:58:05 | 00:00:00 | |
| 9A1FER-10 | 2026-09-05 12:47:12 | -12.03506 | -77.05766 | 29° | 199km/h | 989m | -0.5m/s | -40.6°C | 2.3% | 12.0hPa | 2.6V | 00:00:00 | 01:57:55 | 00:00:00 | |
| 9A1FER-10 | 2026-09-05 12:47:09 | -12.03646 | -77.05827 | 19° | 199km/h | 992m | -0.4m/s | -39.8°C | 2.2% | 11.7hPa | 2.6V | 00:00:00 | 01:57:52 | 08:30:00 | |
| 9A1FER-10 | 2026-09-05 12:46:56 | -12.04289 | -77.05803 | 337° | 197km/h | 992m | -0.8m/s | -40.6°C | 2.4% | 10.0hPa | 2.6V | 00:00:00 | 01:57:39 | 00:00:00 | |
| 9A1FER-10 | 2026-09-05 12:46:52 | -12.04464 | -77.05702 | 325° | 199km/h | 991m | 1.7m/s | -40.1°C | 2.2% | 9.6hPa | 2.6V | 00:00:00 | 01:57:35 | 00:00:00 | |
| LZ4TU-5 | 2026-09-05 12:46:48 | -12.04580 | -77.05601 | 315° | 199km/h | 989m | 0.5m/s | -39.9°C | 0.5% | 9.3hPa | 2.6V | 00:00:00 | 00:00:00 | 00:00:00 | |
| LZ4TU-5 | 2026-09-05 12:46:43 | -12.04730 | -77.05396 | 299° | 199km/h | 991m | 0.0m/s | -39.8°C | 0.5% | 8.7hPa | 2.6V | 00:00:00 | 00:00:00 | 00:00:00 | |
| 9A1FER-10 | 2026-09-05 12:46:10 | -12.04083 | -77.04051 | 190° | 199km/h | 990m | 0.0m/s | -39.8°C | 2.2% | 8.6hPa | 2.6V | 00:00:00 | 01:56:53 | 00:00:00 | |
| 9A1FER-10 | 2026-09-05 12:45:54 | -12.03332 | -77.04274 | 139° | 199km/h | 989m | 0.0m/s | -40.4°C | 2.3% | 8.7hPa | 2.7V | 00:00:00 | 01:56:37 | 00:00:00 | |
| 9A1FER-10 | 2026-09-05 12:45:38 | -12.03033 | -77.05008 | 87° | 199km/h | 989m | 0.0m/s | -40.7°C | 2.3% | 8.9hPa | 2.7V | 00:00:00 | 01:56:21 | 00:00:00 | |
| GYPAP8-17 | 2026-09-05 12:45:37 | -12.03033 | -77.05008 | 88° | 199km/h | 989m | 0.1m/s | -40.7°C | 0.6% | 8.9hPa | 2.7V | 00:00:00 | 00:00:00 | 00:00:00 | |
| 9A1FER-10 | 2026-09-05 12:45:24 | -12.03332 | -77.05641 | 42° | 199km/h | 991m | -0.5m/s | -40.7°C | 2.4% | 9.1hPa | 2.7V | 00:00:00 | 01:56:07 | 00:00:00 | |
| 9A1FER-10 | 2026-09-05 12:45:08 | -12.04084 | -77.05863 | 351° | 199km/h | 992m | -0.0m/s | -40.6°C | 2.3% | 9.2hPa | 2.7V | 00:00:00 | 01:55:51 | 00:00:00 | |
| 9A1FER-10 | 2026-09-05 12:44:53 | -12.04698 | -77.05448 | 303° | 199km/h | 992m | 0.0m/s | -41.1°C | 2.3% | 9.4hPa | 2.7V | 00:00:00 | 01:55:36 | 00:00:00 | |
| 9A1FER-10 | 2026-09-05 12:44:38 | -12.04805 | -77.04707 | 255° | 199km/h | 991m | 0.0m/s | -41.3°C | 2.3% | 9.5hPa | 2.7V | 00:00:00 | 01:55:21 | 08:30:00 | |
| 9A1FER-10 | 2026-09-05 12:44:23 | -12.04333 | -77.04131 | 205° | 199km/h | 992m | -0.7m/s | -41.3°C | 2.3% | 9.7hPa | 2.7V | 00:00:00 | 01:55:06 | 00:00:00 | |
| GYPAP8-17 | 2026-09-05 12:44:16 | -12.04042 | -77.04044 | 188° | 199km/h | 992m | -0.1m/s | -41.4°C | 0.6% | 9.8hPa | 2.7V | 00:00:00 | 00:00:00 | 00:00:00 | |
| GYPAP8-17 | 2026-09-05 12:43:56 | -12.03173 | -77.04460 | 124° | 199km/h | 993m | 0.1m/s | -41.7°C | 0.7% | 10.0hPa | 2.7V | 00:00:00 | 00:00:00 | 00:00:00 | |
| 9A1FER-10 | 2026-09-05 12:43:54 | -12.03102 | -77.04596 | 113° | 199km/h | 993m | -0.7m/s | -41.7°C | 2.5% | 10.0hPa | 2.7V | 00:00:00 | 01:54:37 | 00:00:00 | |
| 9A1FER-10 | 2026-09-05 12:43:44 | -12.03041 | -77.05100 | 82° | 199km/h | 993m | -0.0m/s | -41.5°C | 2.4% | 10.1hPa | 2.7V | 00:00:00 | 01:54:27 | 00:00:00 | |
| 9A1FER-10 | 2026-09-05 12:43:28 | -12.03487 | -77.05754 | 30° | 199km/h | 992m | -0.6m/s | -40.8°C | 2.3% | 10.3hPa | 2.7V | 00:00:00 | 01:54:11 | 00:00:00 | |
| 9A1FER-10 | 2026-09-05 12:43:14 | -12.04172 | -77.05842 | 345° | 199km/h | 993m | -0.9m/s | -40.6°C | 2.3% | 10.4hPa | 2.7V | 00:00:00 | 01:53:57 | 00:00:00 | |
| 9A1FER-10 | 2026-09-05 12:43:04 | -12.04599 | -77.05579 | 313° | 199km/h | 993m | 0.1m/s | -41.1°C | 2.4% | 10.5hPa | 2.6V | 00:00:00 | 01:53:47 | 00:00:00 | |
| 9A1FER-10 | 2026-09-05 12:42:48 | -12.04827 | -77.04817 | 262° | 199km/h | 992m | 0.0m/s | -41.0°C | 2.4% | 10.6hPa | 2.6V | 00:00:00 | 01:53:31 | 00:00:00 | |
| GYPAP8-17 | 2026-09-05 12:42:41 | -12.04732 | -77.04526 | 243° | 199km/h | 992m | -0.2m/s | -40.8°C | 0.6% | 10.8hPa | 2.6V | 00:00:00 | 00:00:00 | 00:00:00 | |
| 9A1FER-10 | 2026-09-05 12:42:34 | -12.04470 | -77.04217 | 217° | 199km/h | 993m | 0.0m/s | -40.9°C | 2.4% | 10.8hPa | 2.6V | 00:00:00 | 01:53:17 | 08:30:00 | |
| LZ4TU-5 | 2026-09-05 12:42:26 | -12.04151 | -77.04065 | 195° | 199km/h | 992m | -0.0m/s | -40.9°C | 0.6% | 10.9hPa | 2.6V | 00:00:00 | 00:00:00 | 00:00:00 | |
| LZ4TU-5 | 2026-09-05 12:42:21 | -12.03901 | -77.04038 | 179° | 199km/h | 992m | -0.1m/s | -40.9°C | 0.6% | 11.0hPa | 2.6V | 00:00:00 | 00:00:00 | 00:00:00 | |
| 9A1FER-10 | 2026-09-05 12:42:18 | -12.03701 | -77.04069 | 166° | 199km/h | 992m | 0.0m/s | -40.8°C | 2.3% | 11.0hPa | 2.6V | 00:00:00 | 01:53:01 | 00:00:00 | |
| 9A1FER-10 | 2026-09-05 12:42:02 | -12.03102 | -77.04585 | 109° | 199km/h | 995m | 1.6m/s | -41.1°C | 2.3% | 11.1hPa | 2.6V | 00:00:00 | 01:52:45 | 00:00:00 | |
| 9A1FER-10 | 2026-09-05 12:41:46 | -12.03133 | -77.05382 | 63° | 199km/h | 992m | 0.0m/s | -41.6°C | 2.3% | 11.3hPa | 2.6V | 00:00:00 | 01:52:29 | 00:00:00 | |
| 9A1FER-10 | 2026-09-05 12:41:32 | -12.03663 | -77.05832 | 18° | 199km/h | 992m | -0.5m/s | -42.3°C | 2.4% | 11.5hPa | 2.7V | 00:00:00 | 01:52:15 | 00:00:00 | |
| GYPAP8-17 | 2026-09-05 12:41:31 | -12.03663 | -77.05832 | 18° | 199km/h | 992m | -0.6m/s | -42.4°C | 0.6% | 11.6hPa | 2.7V | 00:00:00 | 00:00:00 | 00:00:00 | |
| 9A1FER-10 | 2026-09-05 12:41:22 | -12.04162 | -77.05844 | 346° | 199km/h | 992m | -0.1m/s | -42.6°C | 2.5% | 11.6hPa | 2.7V | 00:00:00 | 01:52:05 | 00:00:00 | |
| 9A1FER-10 | 2026-09-05 12:41:07 | -12.04738 | -77.05377 | 298° | 199km/h | 992m | 0.0m/s | -42.5°C | 2.5% | 11.8hPa | 2.7V | 00:00:00 | 01:51:50 | 00:00:00 | |
| GYPAP8-17 | 2026-09-05 12:40:22 | -12.03566 | -77.04115 | 157° | 199km/h | 988m | -0.3m/s | -43.9°C | 0.7% | 12.4hPa | 2.6V | 00:00:00 | 00:00:00 | 00:00:00 | |
| 9A1FER-10 | 2026-09-05 12:40:09 | -12.03091 | -77.04624 | 112° | 199km/h | 987m | 0.2m/s | -44.3°C | 2.7% | 12.5hPa | 2.6V | 00:00:00 | 01:50:52 | 00:00:00 | |
| 9A1FER-10 | 2026-09-05 12:39:54 | -12.03128 | -77.05372 | 62° | 199km/h | 988m | -0.6m/s | -44.3°C | 2.7% | 12.7hPa | 2.6V | 00:00:00 | 01:50:37 | 00:00:00 | |
| 9A1FER-10 | 2026-09-05 12:39:52 | -12.03179 | -77.05461 | 57° | 199km/h | 988m | -0.2m/s | -44.3°C | 2.7% | 12.7hPa | 2.6V | 00:00:00 | 01:50:35 | 00:00:00 | |
| LZ4TU-5 | 2026-09-05 12:39:47 | -12.03309 | -77.05618 | 45° | 199km/h | 990m | 0.5m/s | -44.6°C | 0.8% | 12.8hPa | 2.6V | 00:00:00 | 00:00:00 | 00:00:00 | |
| LZ4TU-5 | 2026-09-05 12:39:43 | -12.03469 | -77.05742 | 32° | 199km/h | 988m | 0.0m/s | -44.5°C | 0.7% | 12.8hPa | 2.6V | 00:00:00 | 00:00:00 | 00:00:00 | |
| 9A1FER-10 | 2026-09-05 12:39:26 | -12.04341 | -77.05775 | 334° | 199km/h | 991m | 0.0m/s | -43.9°C | 2.7% | 13.0hPa | 2.6V | 00:00:00 | 01:50:09 | 00:00:00 | |
| 9A1FER-10 | 2026-09-05 12:39:10 | -12.04819 | -77.05144 | 282° | 199km/h | 989m | -0.8m/s | -43.6°C | 2.6% | 13.3hPa | 2.6V | 00:00:00 | 01:49:53 | 00:00:00 | |
| 9A1FER-10 | 2026-09-05 12:39:07 | -12.04838 | -77.04991 | 272° | 199km/h | 990m | -0.8m/s | -43.7°C | 2.6% | 13.3hPa | 2.6V | 00:00:00 | 01:49:50 | 00:00:00 | |
| 9A1FER-10 | 2026-09-05 12:38:53 | -12.04599 | -77.04334 | 227° | 199km/h | 991m | -0.6m/s | -44.2°C | 2.7% | 13.5hPa | 2.6V | 00:00:00 | 01:49:36 | 00:00:00 | |
| 9A1FER-10 | 2026-09-05 12:38:50 | -12.04487 | -77.04230 | 218° | 199km/h | 991m | -0.5m/s | -44.2°C | 2.7% | 13.6hPa | 2.6V | 00:00:00 | 01:49:33 | 00:00:00 | |
| 9A1FER-10 | 2026-09-05 12:38:39 | -12.03973 | -77.04039 | 183° | 199km/h | 992m | -1.0m/s | -44.5°C | 2.9% | 13.7hPa | 2.6V | 00:00:00 | 01:49:22 | 08:30:00 | |
| 9A1FER-10 | 2026-09-05 12:38:35 | -12.03771 | -77.04054 | 170° | 199km/h | 992m | -0.5m/s | -44.4°C | 2.8% | 13.8hPa | 2.7V | 00:00:00 | 01:49:18 | 00:00:00 | |
| 9A1FER-10 | 2026-09-05 12:38:32 | -12.03625 | -77.04095 | 161° | 199km/h | 992m | 0.0m/s | -44.3°C | 2.7% | 13.8hPa | 2.7V | 00:00:00 | 01:49:15 | 00:00:00 | |
| 9A1FER-10 | 2026-09-05 12:38:17 | -12.03097 | -77.04616 | 112° | 199km/h | 992m | 0.0m/s | -44.1°C | 2.7% | 14.0hPa | 2.7V | 00:00:00 | 01:49:00 | 00:00:00 | |
| 9A1FER-10 | 2026-09-05 12:38:00 | -12.03176 | -77.05453 | 58° | 199km/h | 989m | 0.0m/s | -43.6°C | 2.7% | 14.3hPa | 2.6V | 00:00:00 | 01:48:43 | 00:00:00 | |
| 9A1FER-10 | 2026-09-05 12:37:43 | -12.03896 | -77.05883 | 3° | 197km/h | 990m | -0.6m/s | -43.4°C | 2.6% | 14.5hPa | 2.6V | 00:00:00 | 01:48:26 | 00:00:00 | |
| 9A1FER-10 | 2026-09-05 12:37:41 | -12.03997 | -77.05882 | 355° | 199km/h | 993m | -3.2m/s | -43.5°C | 2.6% | 14.6hPa | 2.6V | 00:00:00 | 01:48:24 | 00:00:00 | |
| 9A1FER-10 | 2026-09-05 12:37:38 | -12.04147 | -77.05856 | 344° | 204km/h | 994m | -2.2m/s | -43.3°C | 2.6% | 14.6hPa | 2.6V | 00:00:00 | 01:48:21 | 00:00:00 | |
| 9A1FER-10 | 2026-09-05 12:37:37 | -12.04196 | -77.05839 | 341° | 170km/h | 996m | -0.0m/s | -43.2°C | 2.6% | 14.6hPa | 2.6V | 00:00:00 | 01:48:20 | 00:00:00 | |
| LZ4TU-5 | 2026-09-05 12:37:12 | 46.27881 | 21.02614 | 0° | 0km/h | 28540m | 0.0m/s | -43.9°C | 0% | 15.0hPa | 2.6V | 00:00:00 | 00:00:00 | 00:00:00 | |
| LZ4TU-5 | 2026-09-05 12:37:08 | 46.27881 | 21.02614 | 0° | 0km/h | 28540m | 0.0m/s | -44.2°C | 0.8% | 15.1hPa | 2.6V | 00:00:00 | 00:00:00 | 00:00:00 | |
| LZ4TU-5 | 2026-09-05 12:34:49 | 46.27996 | 21.02259 | 178° | 13km/h | 27828m | 5.2m/s | -45.6°C | 0.8% | 17.4hPa | 2.6V | 00:00:00 | 00:00:00 | 00:00:00 | |
| LZ4TU-5 | 2026-09-05 12:34:44 | 46.28002 | 21.02257 | 108° | 5km/h | 27799m | 5.9m/s | -46.0°C | 0.8% | 17.5hPa | 2.6V | 00:00:00 | 00:00:00 | 00:00:00 | |
| 9A1FER-10 | 2026-09-05 12:32:58 | 46.28213 | 21.01410 | 79° | 29km/h | 27141m | 7.2m/s | -47.0°C | 3.0% | 19.3hPa | 2.6V | 00:00:00 | 01:43:41 | 08:30:00 | |
| 9A1FER-10 | 2026-09-05 12:32:35 | 46.28210 | 21.01179 | 90° | 22km/h | 26994m | 7.5m/s | -47.5°C | 3.1% | 19.7hPa | 2.7V | 00:00:00 | 01:43:18 | 00:00:00 | |
| LZ4TU-5 | 2026-09-05 12:32:29 | 46.28205 | 21.01133 | 69° | 27km/h | 26960m | 5.0m/s | -47.5°C | 0.9% | 19.9hPa | 2.7V | 00:00:00 | 00:00:00 | 00:00:00 | |
| LZ4TU-5 | 2026-09-05 12:32:26 | 46.28199 | 21.01102 | 78° | 20km/h | 26934m | 6.7m/s | -47.7°C | 0.9% | 19.9hPa | 2.7V | 00:00:00 | 00:00:00 | 00:00:00 | |
| 9A1FER-10 | 2026-09-05 12:32:20 | 46.28197 | 21.01060 | 91° | 26km/h | 26896m | 6.2m/s | -47.9°C | 3.2% | 20.0hPa | 2.7V | 00:00:00 | 01:43:03 | 00:00:00 | |
| 9A1FER-10 | 2026-09-05 12:32:05 | 46.28188 | 21.00928 | 76° | 16km/h | 26800m | 6.0m/s | -47.9°C | 3.2% | 20.3hPa | 2.7V | 00:00:00 | 01:42:48 | 00:00:00 | |
| 9A1FER-10 | 2026-09-05 12:31:50 | 46.28179 | 21.00846 | 33° | 7km/h | 26704m | 6.3m/s | -47.7°C | 3.1% | 20.6hPa | 2.7V | 00:00:00 | 01:42:33 | 00:00:00 | |
| 9A1FER-10 | 2026-09-05 12:31:35 | 46.28181 | 21.00812 | 155° | 15km/h | 26606m | 5.9m/s | -47.9°C | 3.1% | 20.9hPa | 2.7V | 00:00:00 | 01:42:18 | 00:00:00 | |
| 9A1FER-10 | 2026-09-05 12:31:20 | 46.28196 | 21.00743 | 121° | 24km/h | 26511m | 6.2m/s | -48.1°C | 3.1% | 21.2hPa | 2.7V | 00:00:00 | 01:42:03 | 00:00:00 | |
| 9A1FER-10 | 2026-09-05 12:31:05 | 46.28191 | 21.00617 | 88° | 24km/h | 26410m | 5.9m/s | -48.5°C | 3.2% | 21.6hPa | 2.7V | 00:00:00 | 01:41:48 | 00:00:00 | |
| 9A1FER-10 | 2026-09-05 12:30:50 | 46.28158 | 21.00507 | 113° | 18km/h | 26309m | 6.9m/s | -49.1°C | 3.3% | 21.9hPa | 2.7V | 00:00:00 | 01:41:33 | 00:00:00 | |
| 9A1FER-10 | 2026-09-05 12:30:35 | 46.28143 | 21.00428 | 124° | 11km/h | 26212m | 6.4m/s | -49.2°C | 3.4% | 22.2hPa | 2.7V | 00:00:00 | 01:41:18 | 08:30:00 | |
| 9A1FER-10 | 2026-09-05 12:30:18 | 46.28139 | 21.00376 | 115° | 11km/h | 26101m | 6.7m/s | -49.4°C | 3.4% | 22.6hPa | 2.6V | 00:00:00 | 01:41:01 | 00:00:00 | |
| 9A1FER-10 | 2026-09-05 12:29:48 | 46.28125 | 21.00241 | 84° | 22km/h | 25903m | 6.0m/s | -49.0°C | 3.4% | 23.3hPa | 2.6V | 00:00:00 | 01:40:31 | 00:00:00 | |
| 9A1FER-10 | 2026-09-05 12:29:33 | 46.28112 | 21.00128 | 81° | 26km/h | 25806m | 7.3m/s | -48.7°C | 3.3% | 23.6hPa | 2.6V | 00:00:00 | 01:40:16 | 00:00:00 | |
| LZ4TU-5 | 2026-09-05 12:29:19 | 46.28075 | 21.00009 | 61° | 26km/h | 25716m | 6.4m/s | -48.6°C | 0.9% | 24.0hPa | 2.6V | 00:00:00 | 00:00:00 | 00:00:00 | |
| 9A1FER-10 | 2026-09-05 12:29:18 | 46.28072 | 20.99999 | 64° | 26km/h | 25708m | 7.6m/s | -48.5°C | 3.2% | 24.0hPa | 2.6V | 00:00:00 | 01:40:01 | 00:00:00 | |
| LZ4TU-5 | 2026-09-05 12:29:14 | 46.28056 | 20.99956 | 60° | 33km/h | 25682m | 5.4m/s | -48.6°C | 0.9% | 24.2hPa | 2.6V | 00:00:00 | 00:00:00 | 00:00:00 | |
| 9A1FER-10 | 2026-09-05 12:29:03 | 46.28027 | 20.99885 | 76° | 24km/h | 25614m | 7.0m/s | -48.6°C | 3.4% | 24.4hPa | 2.6V | 00:00:00 | 01:39:46 | 00:00:00 | |
| 9A1FER-10 | 2026-09-05 12:28:48 | 46.28017 | 20.99764 | 78° | 27km/h | 25521m | 5.4m/s | -48.4°C | 3.2% | 24.7hPa | 2.6V | 00:00:00 | 01:39:31 | 00:00:00 | |
| GYPAP8-17 | 2026-09-05 12:28:29 | 46.27983 | 20.99628 | 62° | 27km/h | 25410m | 7.0m/s | -48.9°C | 0.9% | 25.2hPa | 2.6V | 00:00:00 | 00:00:00 | 00:00:00 | |
| GYPAP8-17 | 2026-09-05 12:28:09 | 46.27963 | 20.99505 | 80° | 20km/h | 25279m | 4.8m/s | -49.5°C | 1.0% | 25.7hPa | 2.6V | 00:00:00 | 00:00:00 | 00:00:00 | |
| 9A1FER-10 | 2026-09-05 12:27:48 | 46.27962 | 20.99338 | 97° | 26km/h | 25139m | 7.8m/s | -50.1°C | 3.4% | 26.2hPa | 2.6V | 00:00:00 | 01:38:31 | 00:00:00 | |
| 9A1FER-10 | 2026-09-05 12:27:12 | 46.27848 | 20.99128 | 18° | 27km/h | 24913m | 7.2m/s | -50.6°C | 3.5% | 27.2hPa | 2.6V | 00:00:00 | 01:37:55 | 08:30:00 | |
| LZ4TU-5 | 2026-09-05 12:26:55 | 46.27736 | 20.99087 | 30° | 20km/h | 24807m | 6.3m/s | -50.9°C | 1.0% | 27.7hPa | 2.6V | 00:00:00 | 00:00:00 | 00:00:00 | |
| LZ4TU-5 | 2026-09-05 12:26:51 | 46.27709 | 20.99066 | 23° | 26km/h | 24777m | 6.8m/s | -51.2°C | 0% | 27.8hPa | 2.6V | 00:00:00 | 00:00:00 | 00:00:00 | |
| GYPAP8-17 | 2026-09-05 12:26:10 | 46.27617 | 20.99031 | 91° | 20km/h | 24516m | 4.9m/s | -51.9°C | 1.1% | 28.9hPa | 2.6V | 00:00:00 | 00:00:00 | 00:00:00 | |
| 9A1FER-10 | 2026-09-05 12:25:36 | 46.27616 | 20.98840 | 78° | 18km/h | 24311m | 6.9m/s | -52.9°C | 4.0% | 29.8hPa | 2.6V | 00:00:00 | 01:36:19 | 00:00:00 | |
| 9A1FER-10 | 2026-09-05 12:25:21 | 46.27581 | 20.98756 | 34° | 18km/h | 24221m | 5.6m/s | -52.6°C | 3.9% | 30.3hPa | 2.6V | 00:00:00 | 01:36:04 | 00:00:00 | |
| GYPAP8-17 | 2026-09-05 12:25:04 | 46.27521 | 20.98710 | 8° | 13km/h | 24118m | 6.7m/s | -52.8°C | 1.1% | 30.8hPa | 2.6V | 00:00:00 | 00:00:00 | 00:00:00 | |
| LZ4TU-5 | 2026-09-05 12:24:59 | 46.27509 | 20.98705 | 13° | 18km/h | 24093m | 6.8m/s | -53.0°C | 0% | 30.9hPa | 2.6V | 00:00:00 | 00:00:00 | 00:00:00 | |
| LZ4TU-5 | 2026-09-05 12:24:55 | 46.27485 | 20.98704 | 351° | 16km/h | 24062m | 6.4m/s | -53.1°C | 0% | 31.1hPa | 2.6V | 00:00:00 | 00:00:00 | 00:00:00 | |
| 9A1FER-10 | 2026-09-05 12:24:49 | 46.27470 | 20.98724 | 293° | 11km/h | 24024m | 6.9m/s | -52.8°C | 4.0% | 31.2hPa | 2.6V | 00:00:00 | 01:35:32 | 00:00:00 | |
| 9A1FER-10 | 2026-09-05 12:24:33 | 46.27441 | 20.98777 | 287° | 9km/h | 23927m | 5.2m/s | -52.3°C | 3.9% | 31.7hPa | 2.6V | 00:00:00 | 01:35:16 | 00:00:00 | |
| 9A1FER-10 | 2026-09-05 12:24:18 | 46.27414 | 20.98802 | 355° | 11km/h | 23840m | 7.5m/s | -51.7°C | 3.7% | 32.1hPa | 2.6V | 00:00:00 | 01:35:01 | 00:00:00 | |
| 9A1FER-10 | 2026-09-05 12:24:03 | 46.27383 | 20.98773 | 34° | 20km/h | 23747m | 6.9m/s | -51.6°C | 3.7% | 32.6hPa | 2.7V | 00:00:00 | 01:34:46 | 00:00:00 | |
| GYPAP8-17 | 2026-09-05 12:24:02 | 46.27380 | 20.98769 | 46° | 16km/h | 23741m | 4.9m/s | -51.7°C | 1.1% | 32.6hPa | 2.7V | 00:00:00 | 00:00:00 | 00:00:00 | |
| 9A1FER-10 | 2026-09-05 12:23:48 | 46.27344 | 20.98689 | 29° | 13km/h | 23657m | 7.2m/s | -52.1°C | 3.8% | 33.0hPa | 2.7V | 00:00:00 | 01:34:31 | 00:00:00 | |
| 9A1FER-10 | 2026-09-05 12:23:32 | 46.27300 | 20.98662 | 4° | 11km/h | 23559m | 7.0m/s | -51.9°C | 3.7% | 33.5hPa | 2.7V | 00:00:00 | 01:34:15 | 08:30:00 | |
| 9A1FER-10 | 2026-09-05 12:23:12 | 46.27266 | 20.98643 | 270° | 15km/h | 23436m | 5.6m/s | -51.5°C | 3.5% | 34.2hPa | 2.7V | 00:00:00 | 01:33:55 | 00:00:00 | |
| LZ4TU-5 | 2026-09-05 12:22:57 | 46.27252 | 20.98624 | 102° | 9km/h | 23349m | 7.4m/s | -52.2°C | 0% | 34.7hPa | 2.7V | 00:00:00 | 00:00:00 | 00:00:00 | |
| LZ4TU-5 | 2026-09-05 12:22:54 | 46.27254 | 20.98612 | 92° | 4km/h | 23322m | 5.8m/s | -52.2°C | 0% | 34.9hPa | 2.7V | 00:00:00 | 00:00:00 | 00:00:00 | |
| GYPAP8-17 | 2026-09-05 12:22:53 | 46.27254 | 20.98612 | 92° | 4km/h | 23322m | 5.8m/s | -52.2°C | 1.1% | 34.9hPa | 2.7V | 00:00:00 | 00:00:00 | 00:00:00 | |
| GYPAP8-17 | 2026-09-05 12:21:46 | 46.27092 | 20.98211 | 35° | 22km/h | 22905m | 5.9m/s | -54.1°C | 1.2% | 37.2hPa | 2.7V | 00:00:00 | 00:00:00 | 00:00:00 | |
| 9A1FER-10 | 2026-09-05 12:21:38 | 46.27058 | 20.98176 | 31° | 18km/h | 22855m | 6.5m/s | -54.4°C | 4.1% | 37.4hPa | 2.7V | 00:00:00 | 01:32:21 | 00:00:00 | |
| 9A1FER-10 | 2026-09-05 12:21:22 | 46.26992 | 20.98150 | 24° | 11km/h | 22756m | 6.6m/s | -54.6°C | 4.1% | 38.0hPa | 2.7V | 00:00:00 | 01:32:05 | 00:00:00 | |
| LZ4TU-5 | 2026-09-05 12:20:44 | 46.26880 | 20.98177 | 311° | 9km/h | 22546m | 6.6m/s | -54.5°C | 0% | 39.3hPa | 2.6V | 00:00:00 | 00:00:00 | 00:00:00 | |
| LZ4TU-5 | 2026-09-05 12:20:39 | 46.26871 | 20.98182 | 2° | 13km/h | 22517m | 5.1m/s | -54.4°C | 0% | 39.5hPa | 2.6V | 00:00:00 | 00:00:00 | 00:00:00 | |
| GYPAP8-17 | 2026-09-05 12:20:35 | 46.26857 | 20.98183 | 9° | 9km/h | 22489m | 4.8m/s | -54.6°C | 1.2% | 39.7hPa | 2.6V | 00:00:00 | 00:00:00 | 00:00:00 | |
| 9A1FER-10 | 2026-09-05 12:20:31 | 46.26853 | 20.98180 | 42° | 5km/h | 22466m | 7.0m/s | -54.5°C | 4.2% | 39.8hPa | 2.6V | 00:00:00 | 01:31:14 | 00:00:00 | |
| 9A1FER-10 | 2026-09-05 12:20:10 | 46.26848 | 20.98197 | 223° | 7km/h | 22350m | 4.6m/s | -54.6°C | 4.3% | 40.5hPa | 2.6V | 00:00:00 | 01:30:53 | 00:00:00 | |
| 9A1FER-10 | 2026-09-05 12:19:53 | 46.26878 | 20.98193 | 119° | 11km/h | 22256m | 4.9m/s | -54.3°C | 4.2% | 41.1hPa | 2.6V | 00:00:00 | 01:30:36 | 00:00:00 | |
| 9A1FER-10 | 2026-09-05 12:19:37 | 46.26919 | 20.98184 | 70° | 9km/h | 22165m | 5.0m/s | -54.2°C | 4.1% | 41.7hPa | 0V | 00:00:00 | 01:30:20 | 00:00:00 | |
| GYPAP8-17 | 2026-09-05 12:19:21 | 46.26943 | 20.98151 | 130° | 7km/h | 22080m | 4.8m/s | -53.9°C | 1.2% | 42.3hPa | 0V | 00:00:00 | 00:00:00 | 00:00:00 | |
| 9A1FER-10 | 2026-09-05 12:19:16 | 46.26948 | 20.98132 | 119° | 15km/h | 22050m | 4.4m/s | 0°C | 0% | 0hPa | 0V | 00:00:00 | 01:29:59 | 00:00:00 | |
| 9A1FER-10 | 2026-09-05 12:18:56 | 46.26956 | 20.98036 | 64° | 9km/h | 21932m | 3.9m/s | 0°C | 0% | 0hPa | 0V | 00:00:00 | 01:29:39 | 08:30:00 | |
| 9A1FER-10 | 2026-09-05 12:18:36 | 46.26962 | 20.97974 | 124° | 16km/h | 21811m | 6.7m/s | 0°C | 0% | 0hPa | 0V | 00:00:00 | 01:29:19 | 00:00:00 | |
| LZ4TU-5 | 2026-09-05 12:18:33 | 46.26964 | 20.97967 | 121° | 11km/h | 21794m | 6.6m/s | -53.7°C | 0% | 44.3hPa | 0V | 00:00:00 | 00:00:00 | 00:00:00 | |
| LZ4TU-5 | 2026-09-05 12:18:27 | 46.26972 | 20.97943 | 123° | 15km/h | 21764m | 6.9m/s | -53.5°C | 0% | 44.5hPa | 0V | 00:00:00 | 00:00:00 | 00:00:00 | |
| GYPAP8-17 | 2026-09-05 12:18:15 | 46.27000 | 20.97897 | 84° | 11km/h | 21690m | 6.5m/s | -53.7°C | 1.2% | 45.0hPa | 0V | 00:00:00 | 00:00:00 | 00:00:00 | |
| OM5KV | 2026-09-05 12:18:06 | 46.27023 | 20.97853 | 147° | 26km/h | 21627m | 7.0m/s | -53.8°C | 1.2% | 45.4hPa | 0V | 00:00:00 | 00:00:00 | 00:00:00 | |
| OM5KV | 2026-09-05 12:18:04 | 46.27027 | 20.97849 | 144° | 20km/h | 21621m | 5.5m/s | -53.9°C | 1.2% | 45.4hPa | 0V | 00:00:00 | 00:00:00 | 00:00:00 | |
| OM5KV | 2026-09-05 12:18:00 | 46.27035 | 20.97827 | 80° | 15km/h | 21596m | 6.9m/s | -53.9°C | 1.2% | 45.6hPa | 0V | 00:00:00 | 00:00:00 | 00:00:00 | |
| OM5KV | 2026-09-05 12:17:58 | 46.27032 | 20.97819 | 67° | 11km/h | 21584m | 4.8m/s | -54.1°C | 1.2% | 45.7hPa | 0V | 00:00:00 | 00:00:00 | 00:00:00 | |
| OM5KV | 2026-09-05 12:17:54 | 46.27041 | 20.97797 | 149° | 22km/h | 21552m | 5.2m/s | -54.1°C | 1.2% | 46.0hPa | 0V | 00:00:00 | 00:00:00 | 00:00:00 | |
| 9A1FER-10 | 2026-09-05 12:17:50 | 46.27061 | 20.97773 | 123° | 26km/h | 21530m | 4.8m/s | 0°C | 0% | 0hPa | 0V | 00:00:00 | 01:28:33 | 00:00:00 | |
| OM5KV | 2026-09-05 12:17:49 | 46.27064 | 20.97765 | 113° | 24km/h | 21524m | 6.4m/s | -54.3°C | 1.3% | 46.2hPa | 0V | 00:00:00 | 00:00:00 | 00:00:00 | |
| OM5KV | 2026-09-05 12:17:47 | 46.27066 | 20.97758 | 98° | 18km/h | 21517m | 7.4m/s | -54.4°C | 1.3% | 46.2hPa | 0V | 00:00:00 | 00:00:00 | 00:00:00 | |
| OM5KV | 2026-09-05 12:17:43 | 46.27062 | 20.97732 | 84° | 16km/h | 21491m | 5.1m/s | -54.5°C | 1.3% | 46.4hPa | 0V | 00:00:00 | 00:00:00 | 00:00:00 | |
| OM5KV | 2026-09-05 12:17:40 | 46.27069 | 20.97713 | 142° | 24km/h | 21466m | 8.3m/s | -54.4°C | 1.3% | 46.6hPa | 0V | 00:00:00 | 00:00:00 | 00:00:00 | |
| OM5KV | 2026-09-05 12:17:38 | 46.27080 | 20.97702 | 145° | 27km/h | 21452m | 6.6m/s | -54.3°C | 1.3% | 46.7hPa | 0V | 00:00:00 | 00:00:00 | 00:00:00 | |
| OM5KV | 2026-09-05 12:17:33 | 46.27094 | 20.97675 | 98° | 24km/h | 21428m | 6.1m/s | -54.1°C | 1.2% | 46.9hPa | 0V | 00:00:00 | 00:00:00 | 00:00:00 | |
| OM5KV | 2026-09-05 12:17:32 | 46.27093 | 20.97658 | 76° | 22km/h | 21416m | 7.1m/s | -54.1°C | 1.2% | 46.9hPa | 0V | 00:00:00 | 00:00:00 | 00:00:00 | |
| OM5KV | 2026-09-05 12:17:28 | 46.27089 | 20.97640 | 90° | 16km/h | 21400m | 5.7m/s | -54.0°C | 1.2% | 47.1hPa | 0V | 00:00:00 | 00:00:00 | 00:00:00 | |
| OM5KV | 2026-09-05 12:17:23 | 46.27104 | 20.97599 | 128° | 33km/h | 21368m | 5.3m/s | -53.8°C | 1.2% | 47.3hPa | 0V | 00:00:00 | 00:00:00 | 00:00:00 | |
| OM5KV | 2026-09-05 12:17:20 | 46.27118 | 20.97569 | 119° | 31km/h | 21351m | 4.9m/s | -53.9°C | 1.2% | 47.4hPa | 0V | 00:00:00 | 00:00:00 | 00:00:00 | |
| OM5KV | 2026-09-05 12:17:14 | 46.27123 | 20.97517 | 88° | 24km/h | 21316m | 5.4m/s | -54.4°C | 1.2% | 47.7hPa | 0V | 00:00:00 | 00:00:00 | 00:00:00 | |
| GYPAP8-17 | 2026-09-05 12:17:08 | 46.27142 | 20.97460 | 133° | 38km/h | 21278m | 6.5m/s | -54.3°C | 1.3% | 47.9hPa | 0V | 00:00:00 | 00:00:00 | 00:00:00 | |
| 9A1FER-10 | 2026-09-05 12:17:06 | 46.27158 | 20.97430 | 118° | 29km/h | 21262m | 6.5m/s | 0°C | 0% | 0hPa | 0V | 00:00:00 | 01:27:49 | 00:00:00 | |
| OM5KV | 2026-09-05 12:17:01 | 46.27166 | 20.97391 | 100° | 20km/h | 21238m | 5.3m/s | -53.9°C | 1.3% | 48.3hPa | 0V | 00:00:00 | 00:00:00 | 00:00:00 | |
| OM5KV | 2026-09-05 12:16:56 | 46.27171 | 20.97351 | 114° | 26km/h | 21207m | 6.6m/s | -53.9°C | 0% | 48.5hPa | 0V | 00:00:00 | 00:00:00 | 00:00:00 | |
| 9A1FER-10 | 2026-09-05 12:16:51 | 46.27186 | 20.97290 | 101° | 29km/h | 21170m | 5.1m/s | 0°C | 0% | 0hPa | 0V | 00:00:00 | 01:27:34 | 00:00:00 | |
| GYPAP8-17 | 2026-09-05 12:16:48 | 46.27185 | 20.97257 | 84° | 31km/h | 21151m | 4.6m/s | -53.9°C | 1.3% | 48.9hPa | 0V | 00:00:00 | 00:00:00 | 00:00:00 | |
| OM5KV | 2026-09-05 12:16:46 | 46.27184 | 20.97236 | 90° | 27km/h | 21139m | 3.6m/s | -53.9°C | 0% | 49.0hPa | 0V | 00:00:00 | 00:00:00 | 00:00:00 | |
| OM5KV | 2026-09-05 12:16:41 | 46.27184 | 20.97180 | 93° | 29km/h | 21110m | 7.1m/s | -53.9°C | 1.3% | 49.3hPa | 0V | 00:00:00 | 00:00:00 | 00:00:00 | |
| OM5KV | 2026-09-05 12:16:39 | 46.27184 | 20.97170 | 91° | 27km/h | 21104m | 4.8m/s | -54.0°C | 0% | 49.3hPa | 0V | 00:00:00 | 00:00:00 | 00:00:00 | |
| 9A1FER-10 | 2026-09-05 12:16:36 | 46.27182 | 20.97132 | 83° | 26km/h | 21080m | 7.3m/s | 0°C | 0% | 0hPa | 0V | 00:00:00 | 01:27:19 | 00:00:00 | |
| OM5KV | 2026-09-05 12:16:34 | 46.27180 | 20.97117 | 82° | 22km/h | 21067m | 7.4m/s | -54.2°C | 1.3% | 49.6hPa | 0V | 00:00:00 | 00:00:00 | 00:00:00 | |
| OM5KV | 2026-09-05 12:16:33 | 46.27180 | 20.97117 | 82° | 22km/h | 21067m | 7.4m/s | -54.2°C | 0% | 49.6hPa | 0V | 00:00:00 | 00:00:00 | 00:00:00 | |
| OM5KV | 2026-09-05 12:16:28 | 46.27178 | 20.97066 | 89° | 29km/h | 21031m | 7.0m/s | -54.1°C | 0% | 49.9hPa | 0V | 00:00:00 | 00:00:00 | 00:00:00 | |
| OM5KV | 2026-09-05 12:16:26 | 46.27177 | 20.97045 | 85° | 29km/h | 21019m | 6.9m/s | -54.0°C | 1.2% | 50.0hPa | 0V | 00:00:00 | 00:00:00 | 00:00:00 | |
| OM5KV | 2026-09-05 12:16:22 | 46.27173 | 20.97016 | 76° | 27km/h | 21001m | 6.8m/s | -54.1°C | 0% | 50.1hPa | 0V | 00:00:00 | 00:00:00 | 00:00:00 | |
| OM5KV | 2026-09-05 12:16:18 | 46.27164 | 20.96980 | 69° | 20km/h | 20978m | 4.8m/s | -54.2°C | 1.2% | 50.3hPa | 0V | 00:00:00 | 00:00:00 | 00:00:00 | |
| LZ4TU-5 | 2026-09-05 12:16:17 | 46.27160 | 20.96966 | 73° | 24km/h | 20968m | 6.2m/s | -54.3°C | 0% | 50.3hPa | 0V | 00:00:00 | 00:00:00 | 00:00:00 | |
| OM5KV | 2026-09-05 12:16:16 | 46.27160 | 20.96966 | 73° | 24km/h | 20968m | 6.2m/s | -54.3°C | 0% | 50.3hPa | 0V | 00:00:00 | 00:00:00 | 00:00:00 | |
| OM5KV | 2026-09-05 12:16:12 | 46.27153 | 20.96930 | 76° | 26km/h | 20945m | 4.9m/s | -54.4°C | 0% | 50.5hPa | 0V | 00:00:00 | 00:00:00 | 00:00:00 | |
| OM5KV | 2026-09-05 12:16:11 | 46.27150 | 20.96910 | 82° | 29km/h | 20934m | 6.5m/s | -54.5°C | 0% | 50.7hPa | 0V | 00:00:00 | 00:00:00 | 00:00:00 | |
| OM5KV | 2026-09-05 12:16:02 | 46.27121 | 20.96842 | 36° | 27km/h | 20886m | 5.5m/s | 0°C | 0% | 51.0hPa | 0V | 00:00:00 | 00:00:00 | 00:00:00 | |
| OM5KV | 2026-09-05 12:15:57 | 46.27101 | 20.96789 | 84° | 29km/h | 20853m | 5.2m/s | 0°C | 0% | 51.3hPa | 0V | 00:00:00 | 00:00:00 | 00:00:00 | |
| OM5KV | 2026-09-05 12:15:51 | 46.27093 | 20.96737 | 64° | 26km/h | 20825m | 6.2m/s | 0°C | 0% | 51.5hPa | 0V | 00:00:00 | 00:00:00 | 00:00:00 | |
| OM5KV | 2026-09-05 12:15:50 | 46.27089 | 20.96729 | 57° | 22km/h | 20820m | 4.5m/s | 0°C | 0% | 51.6hPa | 0V | 00:00:00 | 00:00:00 | 00:00:00 | |
| OM5KV | 2026-09-05 12:15:46 | 46.27072 | 20.96699 | 52° | 33km/h | 20798m | 5.6m/s | 0°C | 0% | 0hPa | 0V | 00:00:00 | 00:00:00 | 00:00:00 | |
| OM5KV | 2026-09-05 12:15:44 | 46.27061 | 20.96679 | 56° | 37km/h | 20787m | 4.6m/s | 0°C | 0% | 0hPa | 0V | 00:00:00 | 00:00:00 | 00:00:00 | |
| OM5KV | 2026-09-05 12:15:41 | 46.27041 | 20.96625 | 67° | 44km/h | 20765m | 4.8m/s | 0°C | 0% | 0hPa | 0V | 00:00:00 | 00:00:00 | 00:00:00 | |
| GYPAP8-17 | 2026-09-05 12:15:40 | 46.27037 | 20.96611 | 68° | 40km/h | 20759m | 6.4m/s | -55.4°C | 1.3% | 52.0hPa | 0V | 00:00:00 | 00:00:00 | 00:00:00 | |
| OM5KV | 2026-09-05 12:15:39 | 46.27032 | 20.96599 | 67° | 37km/h | 20754m | 4.6m/s | 0°C | 0% | 0hPa | 0V | 00:00:00 | 00:00:00 | 00:00:00 | |
| OM5KV | 2026-09-05 12:15:34 | 46.27012 | 20.96557 | 46° | 35km/h | 20732m | 6.4m/s | 0°C | 0% | 0hPa | 0V | 00:00:00 | 00:00:00 | 00:00:00 | |
| 9A1FER-10 | 2026-09-05 12:15:28 | 46.26963 | 20.96460 | 62° | 47km/h | 20696m | 5.1m/s | 0°C | 0% | 0hPa | 0V | 00:00:00 | 01:26:11 | 00:00:00 | |
| OM5KV | 2026-09-05 12:15:27 | 46.26963 | 20.96460 | 62° | 55km/h | 20696m | 5.1m/s | 0°C | 0% | 0hPa | 0V | 00:00:00 | 00:00:00 | 00:00:00 | |
| OM5KV | 2026-09-05 12:15:26 | 46.26956 | 20.96442 | 59° | 57km/h | 20690m | 5.7m/s | 0°C | 0% | 0hPa | 0V | 00:00:00 | 00:00:00 | 00:00:00 | |
| GYPAP8-17 | 2026-09-05 12:15:19 | 46.26888 | 20.96348 | 41° | 42km/h | 20647m | 4.6m/s | -55.9°C | 1.4% | 53.0hPa | 0V | 00:00:00 | 00:00:00 | 00:00:00 | |
| OM5KV | 2026-09-05 12:15:18 | 46.26888 | 20.96348 | 41° | 42km/h | 20647m | 4.6m/s | 0°C | 0% | 0hPa | 0V | 00:00:00 | 00:00:00 | 00:00:00 | |
| 9A1FER-10 | 2026-09-05 12:15:13 | 46.26841 | 20.96275 | 54° | 40km/h | 20614m | 6.0m/s | 0°C | 0% | 0hPa | 0V | 00:00:00 | 01:25:56 | 08:30:00 | |
| 9A1FER-10 | 2026-09-05 12:14:57 | 46.26717 | 20.96125 | 43° | 38km/h | 20528m | 6.5m/s | 0°C | 0% | 0hPa | 0V | 00:00:00 | 01:25:40 | 00:00:00 | |
| 9A1FER-10 | 2026-09-05 12:14:41 | 46.26588 | 20.95996 | 45° | 27km/h | 20442m | 5.4m/s | 0°C | 0% | 0hPa | 0V | 00:00:00 | 01:25:24 | 00:00:00 | |
| LZ4TU-5 | 2026-09-05 12:13:38 | 46.26359 | 20.95523 | 82° | 27km/h | 20092m | 5.6m/s | -55.7°C | 0% | 57.8hPa | 0V | 00:00:00 | 00:00:00 | 00:00:00 | |
| GYPAP8-17 | 2026-09-05 12:13:36 | 46.26356 | 20.95501 | 83° | 33km/h | 20080m | 4.5m/s | -55.7°C | 1.4% | 57.9hPa | 0V | 00:00:00 | 00:00:00 | 00:00:00 | |
| LZ4TU-5 | 2026-09-05 12:13:33 | 46.26355 | 20.95468 | 86° | 26km/h | 20064m | 4.0m/s | -55.9°C | 0% | 58.0hPa | 0V | 00:00:00 | 00:00:00 | 00:00:00 | |
| 9A1FER-10 | 2026-09-05 12:13:13 | 46.26314 | 20.95276 | 73° | 29km/h | 19942m | 6.5m/s | 0°C | 0% | 0hPa | 0V | 00:00:00 | 01:23:56 | 00:00:00 | |
| 9A1FER-10 | 2026-09-05 12:12:57 | 46.26279 | 20.95125 | 60° | 22km/h | 19849m | 7.0m/s | 0°C | 0% | 0hPa | 0V | 00:00:00 | 01:23:40 | 00:00:00 | |
| 9A1FER-10 | 2026-09-05 12:12:39 | 46.26233 | 20.94975 | 66° | 26km/h | 19741m | 7.2m/s | 0°C | 0% | 0hPa | 0V | 00:00:00 | 01:23:22 | 00:00:00 | |
| 9A1FER-10 | 2026-09-05 12:12:20 | 46.26176 | 20.94794 | 70° | 31km/h | 19630m | 6.7m/s | 0°C | 0% | 0hPa | 0V | 00:00:00 | 01:23:03 | 00:00:00 | |
| GYPAP8-17 | 2026-09-05 12:12:12 | 46.26162 | 20.94727 | 86° | 31km/h | 19591m | 4.4m/s | -56.0°C | 1.4% | 62.5hPa | 0V | 00:00:00 | 00:00:00 | 00:00:00 | |
| 9A1FER-10 | 2026-09-05 12:12:02 | 46.26138 | 20.94601 | 64° | 24km/h | 19527m | 5.4m/s | 0°C | 0% | 0hPa | 0V | 00:00:00 | 01:22:45 | 00:00:00 | |
| GYPAP8-17 | 2026-09-05 12:11:08 | 46.25945 | 20.94031 | 48° | 33km/h | 19220m | 4.0m/s | -56.1°C | 1.4% | 66.3hPa | 0V | 00:00:00 | 00:00:00 | 00:00:00 | |
| LZ4TU-5 | 2026-09-05 12:11:01 | 46.25903 | 20.93980 | 52° | 35km/h | 19180m | 5.5m/s | -56.2°C | 0% | 66.7hPa | 0V | 00:00:00 | 00:00:00 | 00:00:00 | |
| LZ4TU-5 | 2026-09-05 12:10:56 | 46.25880 | 20.93929 | 57° | 35km/h | 19155m | 5.5m/s | -56.3°C | 0% | 67.0hPa | 0V | 00:00:00 | 00:00:00 | 00:00:00 | |
| 9A1FER-10 | 2026-09-05 12:10:42 | 46.25814 | 20.93818 | 64° | 20km/h | 19069m | 5.8m/s | 0°C | 0% | 0hPa | 0V | 00:00:00 | 01:21:25 | 00:00:00 | |
| 9A1FER-10 | 2026-09-05 12:10:25 | 46.25753 | 20.93707 | 59° | 22km/h | 18971m | 7.1m/s | 0°C | 0% | 0hPa | 0V | 00:00:00 | 01:21:08 | 00:00:00 | |
| GYPAP8-17 | 2026-09-05 12:10:00 | 46.25712 | 20.93576 | 95° | 18km/h | 18835m | 5.2m/s | -55.8°C | 1.4% | 70.4hPa | 0V | 00:00:00 | 00:00:00 | 00:00:00 | |
| LZ4TU-5 | 2026-09-05 12:09:09 | 46.25608 | 20.93274 | 66° | 26km/h | 18550m | 5.1m/s | 0°C | 0% | 73.7hPa | 0V | 00:00:00 | 00:00:00 | 00:00:00 | |
| LZ4TU-5 | 2026-09-05 12:09:06 | 46.25601 | 20.93240 | 78° | 26km/h | 18529m | 6.4m/s | 0°C | 0% | 73.9hPa | 0V | 00:00:00 | 00:00:00 | 00:00:00 | |
| GYPAP8-17 | 2026-09-05 12:08:50 | 46.25567 | 20.93107 | 69° | 24km/h | 18446m | 5.8m/s | -56.0°C | 1.5% | 74.8hPa | 0V | 00:00:00 | 00:00:00 | 00:00:00 | |
| OM5KV | 2026-09-05 12:08:26 | 46.25525 | 20.92957 | 96° | 18km/h | 18312m | 5.5m/s | 0°C | 0% | 0hPa | 0V | 00:00:00 | 00:00:00 | 00:00:00 | |
| OM5KV | 2026-09-05 12:08:06 | 46.25547 | 20.92826 | 116° | 26km/h | 18197m | 4.2m/s | 0°C | 0% | 0hPa | 0V | 00:00:00 | 00:00:00 | 00:00:00 | |
| OM5KV | 2026-09-05 12:07:34 | 46.25665 | 20.92487 | 118° | 37km/h | 18012m | 5.1m/s | 0°C | 0% | 0hPa | 0V | 00:00:00 | 00:00:00 | 00:00:00 | |
| GYPAP8-17 | 2026-09-05 12:07:10 | 46.25718 | 20.92242 | 124° | 27km/h | 17895m | 4.5m/s | -55.3°C | 1.5% | 81.6hPa | 0V | 00:00:00 | 00:00:00 | 00:00:00 | |
| LZ4TU-5 | 2026-09-05 12:06:47 | 46.25732 | 20.91968 | 73° | 35km/h | 17769m | 4.9m/s | 0°C | 0% | 83.3hPa | 0V | 00:00:00 | 00:00:00 | 00:00:00 | |
| LZ4TU-5 | 2026-09-05 12:06:42 | 46.25725 | 20.91915 | 83° | 26km/h | 17741m | 4.7m/s | 0°C | 0% | 83.6hPa | 0V | 00:00:00 | 00:00:00 | 00:00:00 | |
| GYPAP8-17 | 2026-09-05 12:06:06 | 46.25696 | 20.91425 | 87° | 42km/h | 17549m | 3.4m/s | -56.5°C | 1.7% | 86.2hPa | 0V | 00:00:00 | 00:00:00 | 00:00:00 | |
| GYPAP8-17 | 2026-09-05 12:04:56 | 46.25476 | 20.90182 | 83° | 53km/h | 17185m | 4.4m/s | -58.0°C | 1.9% | 91.3hPa | 0V | 00:00:00 | 00:00:00 | 00:00:00 | |
| LZ4TU-5 | 2026-09-05 12:04:30 | 46.25410 | 20.89576 | 71° | 66km/h | 17056m | 3.4m/s | 0°C | 0% | 93.2hPa | 0V | 00:00:00 | 00:00:00 | 00:00:00 | |
| LZ4TU-5 | 2026-09-05 12:04:24 | 46.25381 | 20.89470 | 75° | 57km/h | 17031m | 4.9m/s | 0°C | 0% | 93.6hPa | 0V | 00:00:00 | 00:00:00 | 00:00:00 | |
| GYPAP8-17 | 2026-09-05 12:03:52 | 46.25253 | 20.88877 | 75° | 49km/h | 16865m | 4.4m/s | -59.6°C | 2.4% | 96.1hPa | 0V | 00:00:00 | 00:00:00 | 00:00:00 | |
| GYPAP8-17 | 2026-09-05 12:02:40 | 46.25265 | 20.87536 | 78° | 51km/h | 16496m | 5.3m/s | -59.6°C | 2.8% | 101.9hPa | 0V | 00:00:00 | 00:00:00 | 00:00:00 | |
| GYPAP8-17 | 2026-09-05 12:01:44 | 46.25257 | 20.86282 | 89° | 62km/h | 16194m | 6.2m/s | -60.6°C | 3.1% | 107.0hPa | 0V | 00:00:00 | 00:00:00 | 00:00:00 | |
| GYPAP8-17 | 2026-09-05 12:00:44 | 46.25295 | 20.84777 | 94° | 71km/h | 15874m | 4.2m/s | -60.1°C | 3.1% | 112.7hPa | 0V | 00:00:00 | 00:00:00 | 00:00:00 | |
| LZ4TU-5 | 2026-09-05 11:59:51 | 46.25392 | 20.83473 | 96° | 73km/h | 15605m | 5.4m/s | 0°C | 0% | 117.7hPa | 0V | 00:00:00 | 00:00:00 | 00:00:00 | |
| LZ4TU-5 | 2026-09-05 11:59:47 | 46.25399 | 20.83369 | 98° | 69km/h | 15584m | 5.8m/s | 0°C | 0% | 118.0hPa | 0V | 00:00:00 | 00:00:00 | 00:00:00 | |
| GYPAP8-17 | 2026-09-05 11:59:39 | 46.25420 | 20.83142 | 103° | 75km/h | 15539m | 4.6m/s | -59.5°C | 3.3% | 118.9hPa | 0V | 00:00:00 | 00:00:00 | 00:00:00 | |
| GYPAP8-17 | 2026-09-05 11:58:36 | 46.25527 | 20.81325 | 84° | 88km/h | 15216m | 4.1m/s | -58.8°C | 3.5% | 125.1hPa | 0V | 00:00:00 | 00:00:00 | 00:00:00 | |
| GYPAP8-17 | 2026-09-05 11:57:33 | 46.25364 | 20.79557 | 96° | 88km/h | 14893m | 4.3m/s | -59.1°C | 3.8% | 131.8hPa | 0V | 00:00:00 | 00:00:00 | 00:00:00 | |
| GYPAP8-17 | 2026-09-05 11:56:28 | 46.25369 | 20.77539 | 93° | 84km/h | 14560m | 3.4m/s | -60.3°C | 5.2% | 138.9hPa | 0V | 00:00:00 | 00:00:00 | 00:00:00 | |
| LZ4TU-5 | 2026-09-05 11:55:26 | 46.25397 | 20.75459 | 92° | 91km/h | 14239m | 6.6m/s | 0°C | 0% | 146.3hPa | 0V | 00:00:00 | 00:00:00 | 00:00:00 | |
| LZ4TU-5 | 2026-09-05 11:55:21 | 46.25403 | 20.75287 | 95° | 99km/h | 14215m | 5.8m/s | 0°C | 0% | 0hPa | 0V | 00:00:00 | 00:00:00 | 00:00:00 | |
| GYPAP8-17 | 2026-09-05 11:55:18 | 46.25408 | 20.75180 | 95° | 99km/h | 14198m | 5.0m/s | -60.5°C | 7.1% | 147.3hPa | 0V | 00:00:00 | 00:00:00 | 00:00:00 | |
| LZ4TU-5 | 2026-09-05 11:53:17 | 46.25222 | 20.70437 | 83° | 111km/h | 13557m | 4.2m/s | 0°C | 0% | 0hPa | 0V | 00:00:00 | 00:00:00 | 00:00:00 | |
| LZ4TU-5 | 2026-09-05 11:53:12 | 46.25203 | 20.70234 | 84° | 111km/h | 13533m | 4.9m/s | 0°C | 0% | 0hPa | 0V | 00:00:00 | 00:00:00 | 00:00:00 | |
| LZ4TU-5 | 2026-09-05 11:50:28 | 46.24798 | 20.63480 | 95° | 115km/h | 12703m | 3.8m/s | 0°C | 0% | 0hPa | 0V | 00:00:00 | 00:00:00 | 00:00:00 | |
| LZ4TU-5 | 2026-09-05 11:50:24 | 46.24804 | 20.63315 | 94° | 115km/h | 12683m | 4.8m/s | 0°C | 0% | 0hPa | 0V | 00:00:00 | 00:00:00 | 00:00:00 | |
| GYPAP8-17 | 2026-09-05 11:49:28 | 46.24909 | 20.60780 | 94° | 128km/h | 12342m | 4.1m/s | -55.7°C | 23.4% | 198.6hPa | 0V | 00:00:00 | 00:00:00 | 00:00:00 | |
| LZ4TU-5 | 2026-09-05 11:48:34 | 46.24835 | 20.58262 | 78° | 115km/h | 12035m | 7.1m/s | 0°C | 0% | 0hPa | 0V | 00:00:00 | 00:00:00 | 00:00:00 | |
| LZ4TU-5 | 2026-09-05 11:48:29 | 46.24820 | 20.58096 | 90° | 120km/h | 12002m | 6.2m/s | 0°C | 0% | 0hPa | 0V | 00:00:00 | 00:00:00 | 00:00:00 | |
| GYPAP8-17 | 2026-09-05 11:48:22 | 46.24794 | 20.57782 | 80° | 119km/h | 11955m | 4.8m/s | -55.8°C | 60.6% | 210.9hPa | 0V | 00:00:00 | 00:00:00 | 00:00:00 | |
| GYPAP8-17 | 2026-09-05 11:46:42 | 46.24436 | 20.53928 | 87° | 111km/h | 11353m | 3.5m/s | -51.2°C | 62.0% | 231.7hPa | 0V | 00:00:00 | 00:00:00 | 00:00:00 | |
| LZ4TU-5 | 2026-09-05 11:46:23 | 46.24427 | 20.53203 | 95° | 113km/h | 11232m | 5.0m/s | 0°C | 0% | 0hPa | 0V | 00:00:00 | 00:00:00 | 00:00:00 | |
| LZ4TU-5 | 2026-09-05 11:46:18 | 46.24431 | 20.53001 | 93° | 104km/h | 11200m | 6.1m/s | 0°C | 0% | 0hPa | 0V | 00:00:00 | 00:00:00 | 00:00:00 | |
| GYPAP8-17 | 2026-09-05 11:44:42 | 46.24571 | 20.49247 | 95° | 110km/h | 10549m | 5.1m/s | -44.6°C | 0% | 261.4hPa | 0V | 00:00:00 | 00:00:00 | 00:00:00 | |
| GYPAP8-17 | 2026-09-05 11:43:41 | 46.24789 | 20.46915 | 95° | 104km/h | 10153m | 4.9m/s | -40.8°C | 0% | 277.4hPa | 0V | 00:00:00 | 00:00:00 | 00:00:00 | |
| GYPAP8-17 | 2026-09-05 11:42:33 | 46.24931 | 20.44381 | 91° | 88km/h | 9734m | 9.1m/s | -37.6°C | 0% | 294.8hPa | 0V | 00:00:00 | 00:00:00 | 00:00:00 | |
| GYPAP8-17 | 2026-09-05 11:41:36 | 46.24984 | 20.42458 | 99° | 88km/h | 9375m | 6.7m/s | -34.9°C | 0% | 310.6hPa | 0V | 00:00:00 | 00:00:00 | 00:00:00 | |
| GYPAP8-17 | 2026-09-05 11:39:58 | 46.25102 | 20.39417 | 101° | 88km/h | 8761m | 5.8m/s | -30.0°C | 0% | 338.8hPa | 0V | 00:00:00 | 00:00:00 | 00:00:00 | |
| GYPAP8-17 | 2026-09-05 11:39:00 | 46.25227 | 20.37665 | 95° | 93km/h | 8417m | 8.3m/s | -27.3°C | 0% | 355.4hPa | 0V | 00:00:00 | 00:00:00 | 00:00:00 | |
| GYPAP8-17 | 2026-09-05 11:37:46 | 46.25318 | 20.35207 | 93° | 84km/h | 7916m | 3.9m/s | 0°C | 0% | 380.6hPa | 0V | 00:00:00 | 00:00:00 | 00:00:00 | |
| GYPAP8-17 | 2026-09-05 11:35:50 | 46.25312 | 20.31173 | 91° | 100km/h | 7201m | 6.8m/s | 0°C | 0% | 0hPa | 0V | 00:00:00 | 00:00:00 | 00:00:00 | |
| GYPAP8-17 | 2026-09-05 11:34:56 | 46.25370 | 20.29290 | 88° | 93km/h | 6878m | 7.1m/s | 0°C | 0% | 0hPa | 0V | 00:00:00 | 00:00:00 | 00:00:00 | |
| GYPAP8-17 | 2026-09-05 11:34:03 | 46.25380 | 20.27465 | 94° | 86km/h | 6577m | 3.2m/s | 0°C | 0% | 0hPa | 0V | 00:00:00 | 00:00:00 | 00:00:00 |